createdAt,value
2023-01-19T00:00:49.628Z,9.18
2023-01-19T00:05:51.653Z,6.93
2023-01-19T00:10:53.181Z,6.95
2023-01-19T00:15:54.726Z,9.43
2023-01-19T00:20:56.206Z,8.57
2023-01-19T00:25:57.654Z,10.68
2023-01-19T00:30:59.077Z,14.05
2023-01-19T00:36:00.584Z,6.85
2023-01-19T00:41:02.030Z,7.05
2023-01-19T00:46:03.513Z,10.43
2023-01-19T00:51:05.259Z,9.35
2023-01-19T00:56:07.116Z,7.53
2023-01-19T01:01:08.684Z,12.23
2023-01-19T01:06:10.285Z,11.82
2023-01-19T01:11:11.717Z,6.80
2023-01-19T01:16:16.296Z,8.43
2023-01-19T01:21:17.789Z,8.52
2023-01-19T01:26:19.225Z,10.60
2023-01-19T01:31:20.733Z,8.18
2023-01-19T01:36:22.581Z,12.55
2023-01-19T01:41:25.461Z,11.40
2023-01-19T01:46:31.207Z,10.55
2023-01-19T01:51:43.858Z,10.65
2023-01-19T01:56:48.097Z,15.68
2023-01-19T02:02:07.855Z,7.72
2023-01-19T02:07:32.886Z,7.15
2023-01-19T02:12:53.510Z,7.70
2023-01-19T02:17:54.953Z,13.23
2023-01-19T02:23:01.665Z,12.05
2023-01-19T02:28:04.203Z,10.48
2023-01-19T02:33:05.675Z,8.38
2023-01-19T02:38:08.503Z,9.63
2023-01-19T02:43:10.245Z,7.88
2023-01-19T02:48:11.991Z,9.63
2023-01-19T02:53:31.865Z,12.57
2023-01-19T02:58:51.819Z,13.00
2023-01-19T03:04:11.449Z,6.95
2023-01-19T03:09:29.456Z,7.10
2023-01-19T03:14:37.149Z,10.43
2023-01-19T03:19:43.848Z,8.55
2023-01-19T03:24:47.750Z,7.07
2023-01-19T03:29:55.013Z,8.98
2023-01-19T03:35:00.868Z,9.32
2023-01-19T03:40:02.304Z,10.23
2023-01-19T03:45:04.556Z,8.55
2023-01-19T03:50:13.621Z,10.98
2023-01-19T03:55:15.205Z,5.93
2023-01-19T04:00:16.934Z,10.50
2023-01-19T04:05:19.110Z,19.30
2023-01-19T04:10:22.713Z,16.73
2023-01-19T04:15:24.621Z,8.50
2023-01-19T04:20:28.104Z,8.15
2023-01-19T04:25:29.609Z,11.60
2023-01-19T04:30:31.139Z,10.15
2023-01-19T04:35:34.175Z,10.43
2023-01-19T04:40:35.584Z,8.25
2023-01-19T04:45:37.326Z,19.75
2023-01-19T04:50:39.220Z,16.60
2023-01-19T04:55:40.839Z,11.98
2023-01-19T05:00:43.846Z,10.38
2023-01-19T05:05:46.127Z,17.30
2023-01-19T05:10:48.022Z,15.75
2023-01-19T05:15:50.312Z,10.82
2023-01-19T05:20:51.827Z,13.75
2023-01-19T05:25:55.167Z,11.90
2023-01-19T05:30:56.627Z,11.45
2023-01-19T05:35:58.146Z,10.52
2023-01-19T05:40:59.615Z,11.75
2023-01-19T05:46:01.116Z,12.98
2023-01-19T05:51:02.660Z,8.70
2023-01-19T05:56:08.421Z,5.78
2023-01-19T06:01:10.806Z,5.35
2023-01-19T06:06:14.865Z,4.75
2023-01-19T06:11:16.309Z,4.95
2023-01-19T06:16:17.784Z,5.55
2023-01-19T06:21:19.513Z,9.05
2023-01-19T06:29:43.611Z,11.27
2023-01-19T06:34:46.400Z,8.98
2023-01-19T06:39:47.988Z,10.55
2023-01-19T06:44:49.475Z,9.63
2023-01-19T06:49:50.915Z,9.40
2023-01-19T06:54:52.359Z,11.82
2023-01-19T06:59:53.865Z,15.77
2023-01-19T07:04:56.465Z,16.67
2023-01-19T07:09:58.077Z,11.85
2023-01-19T07:14:59.556Z,11.45
2023-01-19T07:20:01.667Z,15.05
2023-01-19T07:25:03.333Z,11.90
2023-01-19T07:30:05.354Z,12.55
2023-01-19T07:35:07.011Z,18.60
2023-01-19T07:40:09.035Z,15.50
2023-01-19T07:45:10.535Z,16.00
2023-01-19T07:50:12.761Z,16.92
2023-01-19T07:55:14.251Z,17.80
2023-01-19T08:00:16.129Z,15.70
2023-01-19T08:05:18.988Z,13.40
2023-01-19T08:10:22.887Z,12.27
2023-01-19T08:15:24.684Z,14.48
2023-01-19T08:20:27.308Z,13.25
2023-01-19T08:25:33.710Z,17.10
2023-01-19T08:30:36.184Z,22.75
2023-01-19T08:35:40.783Z,16.73
2023-01-19T08:40:42.700Z,17.60
2023-01-19T08:45:50.240Z,21.50
2023-01-19T08:50:52.543Z,22.55
2023-01-19T08:55:57.379Z,20.88
2023-01-19T09:01:00.697Z,19.52
2023-01-19T09:06:07.533Z,23.17
2023-01-19T09:11:14.595Z,30.77
2023-01-19T09:16:16.183Z,31.08
2023-01-19T09:21:18.530Z,19.40
2023-01-19T09:26:22.120Z,23.30
2023-01-19T09:31:24.135Z,20.88
2023-01-19T09:36:25.619Z,30.52
2023-01-19T09:41:27.235Z,32.55
2023-01-19T09:46:40.354Z,31.58
2023-01-19T09:51:46.815Z,27.45
2023-01-19T09:56:52.502Z,23.63
2023-01-19T10:02:06.160Z,29.15
2023-01-19T10:07:35.271Z,20.30
2023-01-19T10:12:45.772Z,27.30
2023-01-19T10:18:14.627Z,23.00
2023-01-19T10:23:40.301Z,29.63
2023-01-19T10:28:42.376Z,27.40
2023-01-19T10:33:43.860Z,26.52
2023-01-19T10:38:45.909Z,33.85
2023-01-19T10:43:47.788Z,23.08
2023-01-19T10:48:51.753Z,26.45
2023-01-19T10:53:57.077Z,26.42
2023-01-19T10:59:00.678Z,41.38
2023-01-19T11:04:21.096Z,20.27
2023-01-19T11:09:23.411Z,36.40
2023-01-19T11:14:26.251Z,33.20
2023-01-19T11:19:33.204Z,23.25
2023-01-19T11:24:37.608Z,35.00
2023-01-19T11:29:39.197Z,32.90
2023-01-19T11:34:40.686Z,20.23
2023-01-19T11:39:51.065Z,26.17
2023-01-19T11:45:12.459Z,27.90
2023-01-19T11:50:28.658Z,20.17
2023-01-19T11:55:38.355Z,21.25
2023-01-19T12:00:45.132Z,26.08
2023-01-19T12:05:51.844Z,23.73
2023-01-19T12:10:57.701Z,22.00
2023-01-19T12:16:13.389Z,23.63
2023-01-19T12:21:14.877Z,19.25
2023-01-19T12:26:16.286Z,18.45
2023-01-19T12:31:19.857Z,32.55
2023-01-19T12:36:30.222Z,21.35
2023-01-19T12:41:34.356Z,25.67
2023-01-19T12:46:41.926Z,25.00
2023-01-19T12:51:43.753Z,17.95
2023-01-19T12:56:45.352Z,25.30
2023-01-19T13:02:25.288Z,29.00
2023-01-19T13:07:26.763Z,24.17
2023-01-19T13:12:28.913Z,39.28
2023-01-19T13:17:33.874Z,22.63
2023-01-19T13:22:50.350Z,17.40
2023-01-19T13:27:52.064Z,26.40
2023-01-19T13:33:03.270Z,20.10
2023-01-19T13:38:05.952Z,18.33
2023-01-19T13:43:18.033Z,22.17
2023-01-19T13:48:24.382Z,22.83
2023-01-19T13:53:26.382Z,22.65
2023-01-19T13:58:28.529Z,15.90
2023-01-19T14:03:30.126Z,21.83
2023-01-19T14:08:32.818Z,17.48
2023-01-19T14:13:40.072Z,24.95
2023-01-19T14:18:41.591Z,20.02
2023-01-19T14:23:48.794Z,18.85
2023-01-19T14:28:50.314Z,19.58
2023-01-19T14:33:55.282Z,23.95
2023-01-19T14:38:59.448Z,19.08
2023-01-19T14:44:02.817Z,24.85
2023-01-19T14:49:06.475Z,18.20
2023-01-19T14:54:17.378Z,21.00
2023-01-19T14:59:18.829Z,21.90
2023-01-19T15:04:20.264Z,16.95
2023-01-19T15:09:22.403Z,22.63
2023-01-19T15:14:23.957Z,23.42
2023-01-19T15:19:25.471Z,19.25
2023-01-19T15:24:26.900Z,18.70
2023-01-19T15:29:28.511Z,15.90
2023-01-19T15:34:29.953Z,20.52
2023-01-19T15:39:32.296Z,16.83
2023-01-19T15:44:33.756Z,17.45
2023-01-19T15:49:35.324Z,18.75
2023-01-19T15:54:36.769Z,13.93
2023-01-19T15:59:38.219Z,15.73
2023-01-19T16:04:39.678Z,20.38
2023-01-19T16:09:41.164Z,17.58
2023-01-19T16:14:42.637Z,16.83
2023-01-19T16:19:44.124Z,15.15
2023-01-19T16:24:45.617Z,12.15
2023-01-19T16:29:47.671Z,15.75
2023-01-19T16:34:49.229Z,13.63
2023-01-19T16:39:51.439Z,15.93
2023-01-19T16:44:54.460Z,18.63
2023-01-19T16:49:56.029Z,15.45
2023-01-19T16:54:57.511Z,16.58
2023-01-19T16:59:59.041Z,22.50
2023-01-19T17:05:00.592Z,19.23
2023-01-19T17:10:02.128Z,15.27
2023-01-19T17:15:03.812Z,15.57
2023-01-19T17:20:05.731Z,14.82
2023-01-19T17:25:07.880Z,18.17
2023-01-19T17:30:10.281Z,16.17
2023-01-19T17:35:11.929Z,16.95
2023-01-19T17:40:13.735Z,20.45
2023-01-19T17:45:19.247Z,16.90
2023-01-19T17:50:20.713Z,17.23
2023-01-19T17:55:22.162Z,17.83
2023-01-19T18:00:23.844Z,14.93
2023-01-19T18:05:25.278Z,19.75
2023-01-19T18:10:26.824Z,14.43
2023-01-19T18:15:29.186Z,25.52
2023-01-19T18:20:32.176Z,14.77
2023-01-19T18:25:33.633Z,16.67
2023-01-19T18:30:36.635Z,16.25
2023-01-19T18:35:38.855Z,17.75
2023-01-19T18:40:40.443Z,16.30
2023-01-19T18:45:42.148Z,10.60
2023-01-19T18:50:43.849Z,12.70
2023-01-19T18:55:56.920Z,8.95
2023-01-19T19:01:00.233Z,19.23
2023-01-19T19:06:03.382Z,9.32
2023-01-19T19:11:08.606Z,8.88
2023-01-19T19:16:12.647Z,7.43
2023-01-19T19:21:14.409Z,14.40
2023-01-19T19:26:15.859Z,11.27
2023-01-19T19:31:22.396Z,13.02
2023-01-19T19:36:26.754Z,9.98
2023-01-19T19:41:28.980Z,12.90
2023-01-19T19:46:30.481Z,10.18
2023-01-19T19:51:32.035Z,20.95
2023-01-19T19:56:34.324Z,13.43
2023-01-19T20:01:35.996Z,10.75
2023-01-19T20:06:44.394Z,12.75
2023-01-19T20:11:49.119Z,7.07
2023-01-19T20:16:50.673Z,10.63
2023-01-19T20:21:52.211Z,17.45
2023-01-19T20:26:54.645Z,9.77
2023-01-19T20:31:56.700Z,11.68
2023-01-19T20:36:58.227Z,11.38
2023-01-19T20:41:59.745Z,14.00
2023-01-19T20:47:01.227Z,10.90
2023-01-19T20:52:03.235Z,11.88
2023-01-19T20:57:04.654Z,13.02
2023-01-19T21:02:12.274Z,14.73
2023-01-19T21:07:13.831Z,12.25
2023-01-19T21:12:15.969Z,10.80
2023-01-19T21:17:17.415Z,10.57
2023-01-19T21:22:18.937Z,9.52
2023-01-19T21:27:20.399Z,25.13
2023-01-19T21:32:21.969Z,12.45
2023-01-19T21:37:23.419Z,16.95
2023-01-19T21:42:24.938Z,10.57
2023-01-19T21:47:26.378Z,11.40
2023-01-19T21:52:27.831Z,15.48
2023-01-19T21:57:29.343Z,17.55
2023-01-19T22:02:38.648Z,13.23
2023-01-19T22:07:40.640Z,14.85
2023-01-19T22:12:42.113Z,18.73
2023-01-19T22:17:43.650Z,14.60
2023-01-19T22:22:45.265Z,15.40
2023-01-19T22:27:46.719Z,20.23
2023-01-19T22:32:48.261Z,16.08
2023-01-19T22:37:49.740Z,15.25
2023-01-19T22:42:51.231Z,16.15
2023-01-19T22:47:52.669Z,16.00
2023-01-19T22:52:57.760Z,14.15
2023-01-19T22:57:59.541Z,16.92
2023-01-19T23:03:00.979Z,15.52
2023-01-19T23:08:02.530Z,14.30
2023-01-19T23:13:03.980Z,15.70
2023-01-19T23:18:05.456Z,13.73
2023-01-19T23:23:06.975Z,15.38
2023-01-19T23:28:08.634Z,14.05
2023-01-19T23:33:10.100Z,18.52
2023-01-19T23:38:11.528Z,15.90
2023-01-19T23:43:13.145Z,17.90
2023-01-19T23:48:14.514Z,15.43
2023-01-19T23:53:15.953Z,19.50
2023-01-19T23:58:17.407Z,13.15
